Time;durP1;ratioP1;P1;durP2;ratioP2;P2;SDS_P1;SDS_P2;PMS_P1;PMS_P2;Temp;Humidity;BMP_temperature;BMP_pressure;BME280_temperature;BME280_humidity;BME280_pressure;Samples;Min_cycle;Max_cycle;Signal;HPM_P1;HPM_P2
2023/07/24 00:00:41;;;;;;;2.33;1.10;;;;;;;25.07;61.22;99511.13;5112832;28;20201;-67
2023/07/24 00:03:08;;;;;;;1.80;1.10;;;;;;;25.10;61.15;99510.88;5112824;28;20309;-67
2023/07/24 00:05:35;;;;;;;1.23;1.10;;;;;;;25.32;61.67;99525.53;5112264;28;20571;-68
2023/07/24 00:08:03;;;;;;;0.57;0.57;;;;;;;25.39;61.75;99526.66;5112530;28;20195;-68
2023/07/24 00:10:30;;;;;;;0.90;0.90;;;;;;;25.38;62.03;99527.59;5112413;28;20693;-67
2023/07/24 00:12:57;;;;;;;1.93;1.07;;;;;;;25.33;62.42;99529.81;5112394;28;20206;-67
2023/07/24 00:15:24;;;;;;;0.60;0.60;;;;;;;25.16;62.90;99526.06;5111737;28;20678;-67
2023/07/24 00:17:51;;;;;;;0.83;0.83;;;;;;;24.93;64.75;99522.81;5112374;28;20676;-67
2023/07/24 00:20:18;;;;;;;3.90;1.43;;;;;;;24.78;65.97;99521.50;5112534;28;20205;-67
2023/07/24 00:22:44;;;;;;;1.53;0.80;;;;;;;24.65;67.03;99526.16;5112260;28;20202;-68
2023/07/24 00:25:12;;;;;;;0.87;0.87;;;;;;;24.66;68.19;99524.34;5112278;28;20190;-67
2023/07/24 00:27:39;;;;;;;1.13;1.07;;;;;;;24.54;69.72;99534.09;5110739;28;20728;-67
2023/07/24 00:30:08;;;;;;;0.73;0.73;;;;;;;24.47;70.33;99533.78;5111778;28;20206;-67
2023/07/24 00:32:34;;;;;;;2.97;0.73;;;;;;;24.36;71.73;99535.69;5111557;28;20201;-67
2023/07/24 00:35:01;;;;;;;0.70;0.70;;;;;;;24.30;72.66;99526.53;5111732;28;20210;-65
2023/07/24 00:37:28;;;;;;;1.50;1.00;;;;;;;24.19;73.78;99528.41;5111840;28;20218;-66
2023/07/24 00:39:54;;;;;;;0.80;0.80;;;;;;;24.05;74.10;99519.03;5112044;28;20195;-67
2023/07/24 00:42:23;;;;;;;0.80;0.80;;;;;;;24.02;74.86;99528.00;5112104;28;20199;-66
2023/07/24 00:44:49;;;;;;;0.70;0.70;;;;;;;23.99;75.00;99528.25;5110811;28;20194;-66
2023/07/24 00:47:17;;;;;;;0.77;0.77;;;;;;;24.00;75.42;99529.94;5111929;28;20619;-67
2023/07/24 00:49:44;;;;;;;0.60;0.60;;;;;;;23.95;75.94;99526.84;5111442;28;20199;-66
2023/07/24 00:52:12;;;;;;;0.90;0.90;;;;;;;23.96;75.89;99518.03;5111684;28;20203;-68
2023/07/24 00:54:39;;;;;;;0.87;0.87;;;;;;;23.93;76.71;99523.53;5111591;28;20681;-67
2023/07/24 00:57:07;;;;;;;0.93;0.93;;;;;;;23.94;77.41;99527.78;5111304;28;20203;-67
2023/07/24 00:59:35;;;;;;;0.90;0.90;;;;;;;23.83;78.44;99522.63;5111667;28;20198;-67
2023/07/24 01:02:02;;;;;;;1.70;0.67;;;;;;;23.83;79.35;99527.88;5111439;28;20578;-67
2023/07/24 01:04:29;;;;;;;0.77;0.77;;;;;;;23.73;80.23;99515.66;5111459;28;20195;-67
2023/07/24 01:06:56;;;;;;;0.70;0.70;;;;;;;23.85;79.85;99525.94;5111333;28;20220;-67
2023/07/24 01:09:23;;;;;;;0.80;0.80;;;;;;;23.96;79.53;99531.13;5111607;28;20199;-67
2023/07/24 01:11:57;;;;;;;0.80;0.80;;;;;;;23.77;80.37;99523.13;5110136;28;20198;-67
2023/07/24 01:14:29;;;;;;;2.73;1.07;;;;;;;23.68;81.26;99530.91;5109382;28;20193;-67
2023/07/24 01:17:01;;;;;;;0.90;0.90;;;;;;;23.68;81.16;99523.91;5111080;28;20199;-67
2023/07/24 01:19:37;;;;;;;1.00;1.00;;;;;;;23.81;81.10;99534.19;5111501;28;20615;-68
2023/07/24 01:22:13;;;;;;;0.77;0.60;;;;;;;23.89;81.12;99529.13;5111037;28;20229;-67
2023/07/24 01:24:51;;;;;;;0.63;0.63;;;;;;;23.90;81.35;99529.03;5111218;28;20967;-67
2023/07/24 01:27:24;;;;;;;0.70;0.70;;;;;;;23.88;81.55;99538.78;5111320;28;20205;-68
2023/07/24 01:29:51;;;;;;;1.13;1.13;;;;;;;23.93;82.26;99544.47;5109393;28;20713;-67
2023/07/24 01:32:18;;;;;;;3.07;0.67;;;;;;;23.91;82.33;99541.13;5111461;28;20198;-67
2023/07/24 01:34:45;;;;;;;1.00;1.00;;;;;;;23.86;83.51;99538.09;5110721;28;20590;-67
2023/07/24 01:37:13;;;;;;;0.80;0.80;;;;;;;23.84;83.57;99539.16;5110751;28;20206;-73
2023/07/24 01:39:41;;;;;;;0.80;0.80;;;;;;;23.89;83.19;99539.59;5110934;28;20616;-73
2023/07/24 01:42:08;;;;;;;2.87;0.90;;;;;;;23.86;83.79;99538.09;5110915;28;20271;-73
2023/07/24 01:44:37;;;;;;;0.97;0.97;;;;;;;23.92;83.58;99542.81;5110843;28;20194;-73
2023/07/24 01:47:04;;;;;;;2.20;1.00;;;;;;;23.95;84.18;99550.41;5110768;28;20198;-73
2023/07/24 01:49:31;;;;;;;0.63;0.63;;;;;;;23.95;84.54;99554.81;5111062;28;20570;-74
2023/07/24 01:51:58;;;;;;;0.90;0.90;;;;;;;23.95;84.86;99552.19;5111018;28;20206;-73
2023/07/24 01:54:25;;;;;;;2.90;0.60;;;;;;;23.92;85.46;99548.03;5110758;28;20237;-73
2023/07/24 01:56:52;;;;;;;1.03;1.03;;;;;;;23.94;85.90;99545.31;5110984;28;20198;-73
2023/07/24 01:59:19;;;;;;;0.50;0.50;;;;;;;23.89;86.54;99552.69;5110829;28;20210;-73
2023/07/24 02:01:47;;;;;;;3.13;0.83;;;;;;;23.83;86.93;99551.44;5110786;28;20252;-73
2023/07/24 02:04:14;;;;;;;0.97;0.97;;;;;;;23.81;87.54;99545.47;5110652;28;20206;-73
2023/07/24 02:06:41;;;;;;;0.80;0.80;;;;;;;23.68;88.35;99550.06;5110673;28;20693;-73
2023/07/24 02:09:07;;;;;;;0.47;0.47;;;;;;;23.70;88.27;99552.56;5111032;28;20195;-73
2023/07/24 02:11:34;;;;;;;2.87;0.70;;;;;;;23.74;88.20;99553.97;5111075;28;20592;-73
2023/07/24 02:14:01;;;;;;;0.87;0.87;;;;;;;23.75;88.38;99548.59;5111069;28;20206;-73
2023/07/24 02:16:28;;;;;;;1.23;1.10;;;;;;;23.73;89.04;99545.28;5110619;28;20276;-73
2023/07/24 02:18:56;;;;;;;1.03;1.03;;;;;;;23.68;88.65;99550.06;5110790;28;20219;-73
2023/07/24 02:21:23;;;;;;;1.10;1.00;;;;;;;23.53;88.08;99540.84;5109951;28;20191;-73
2023/07/24 02:23:49;;;;;;;1.73;1.13;;;;;;;23.52;88.09;99545.22;5110783;28;20198;-73
2023/07/24 02:26:16;;;;;;;1.00;0.90;;;;;;;23.48;88.35;99548.25;5110987;28;20194;-73
2023/07/24 02:28:43;;;;;;;2.50;0.90;;;;;;;23.51;87.80;99548.00;5110756;28;20214;-73
2023/07/24 02:31:10;;;;;;;3.23;1.20;;;;;;;23.49;87.54;99544.66;5110701;28;20211;-73
2023/07/24 02:33:36;;;;;;;0.63;0.63;;;;;;;23.50;87.51;99552.38;5110289;28;20271;-73
2023/07/24 02:36:05;;;;;;;0.67;0.67;;;;;;;23.33;88.24;99544.19;5110246;28;20213;-74
2023/07/24 02:38:32;;;;;;;0.60;0.60;;;;;;;23.35;88.77;99560.63;5109784;28;20719;-73
2023/07/24 02:40:58;;;;;;;3.43;0.90;;;;;;;23.31;89.36;99560.03;5110718;28;20198;-73
2023/07/24 02:43:25;;;;;;;0.73;0.73;;;;;;;23.34;89.07;99562.41;5110476;28;20578;-72
2023/07/24 02:45:52;;;;;;;0.80;0.80;;;;;;;23.38;89.08;99561.19;5110765;28;20678;-73
2023/07/24 02:48:19;;;;;;;0.80;0.80;;;;;;;23.42;87.93;99559.22;5109602;28;20698;-73
2023/07/24 02:50:48;;;;;;;1.50;0.87;;;;;;;23.37;86.76;99550.84;5109557;28;20199;-73
2023/07/24 02:53:16;;;;;;;0.70;0.70;;;;;;;23.30;85.92;99550.50;5110481;28;20692;-73
2023/07/24 02:55:43;;;;;;;0.70;0.70;;;;;;;23.22;85.54;99555.53;5112646;28;20198;-72
2023/07/24 02:58:10;;;;;;;1.60;1.53;;;;;;;22.99;85.38;99554.75;5113076;28;20261;-73
2023/07/24 03:00:37;;;;;;;0.80;0.80;;;;;;;22.89;85.13;99548.56;5113880;28;20334;-73
2023/07/24 03:03:04;;;;;;;0.80;0.80;;;;;;;22.83;85.73;99556.88;5114116;28;20255;-73
2023/07/24 03:05:31;;;;;;;1.10;0.80;;;;;;;22.86;85.97;99561.88;5114257;28;20214;-73
2023/07/24 03:07:58;;;;;;;0.80;0.80;;;;;;;22.87;85.44;99554.88;5113629;28;20191;-73
2023/07/24 03:10:26;;;;;;;4.63;0.93;;;;;;;22.94;84.20;99554.25;5114065;28;20666;-73
2023/07/24 03:12:53;;;;;;;0.60;0.60;;;;;;;22.95;82.51;99545.47;5113091;27;20607;-70
2023/07/24 03:15:20;;;;;;;2.53;0.83;;;;;;;22.99;80.96;99566.97;5113627;28;20285;-71
2023/07/24 03:17:47;;;;;;;0.70;0.70;;;;;;;22.97;80.21;99567.06;5113301;28;20202;-69
2023/07/24 03:20:16;;;;;;;1.63;0.90;;;;;;;22.96;79.20;99562.81;5113403;28;20714;-70
2023/07/24 03:22:43;;;;;;;0.60;0.60;;;;;;;22.91;79.20;99567.56;5113778;28;20194;-70
2023/07/24 03:25:10;;;;;;;0.60;0.60;;;;;;;22.91;79.55;99553.66;5113838;28;20221;-70
2023/07/24 03:27:38;;;;;;;2.70;0.70;;;;;;;22.91;79.73;99564.94;5113818;28;20636;-70
2023/07/24 03:30:06;;;;;;;1.07;0.50;;;;;;;22.92;81.35;99566.63;5113109;28;20205;-70
2023/07/24 03:32:33;;;;;;;3.37;1.47;;;;;;;22.95;81.92;99570.78;5112757;28;20263;-70
2023/07/24 03:35:00;;;;;;;0.70;0.70;;;;;;;22.98;82.43;99565.31;5112375;28;20331;-69
2023/07/24 03:37:26;;;;;;;1.27;0.83;;;;;;;23.03;82.83;99568.41;5110744;28;20206;-64
2023/07/24 03:39:53;;;;;;;0.77;0.73;;;;;;;23.10;83.48;99563.53;5111866;28;20214;-65
2023/07/24 03:42:27;;;;;;;0.80;0.80;;;;;;;23.17;83.64;99562.91;5111975;28;20230;-64
2023/07/24 03:44:56;;;;;;;0.70;0.70;;;;;;;23.09;84.37;99552.22;5110128;28;20210;-65
2023/07/24 03:47:23;;;;;;;0.83;0.83;;;;;;;23.24;85.55;99565.84;5112670;28;20594;-64
2023/07/24 03:49:50;;;;;;;0.60;0.60;;;;;;;23.32;85.69;99558.25;5112220;28;20195;-64
2023/07/24 03:52:17;;;;;;;0.50;0.50;;;;;;;23.29;87.14;99542.78;5112032;28;20194;-65
2023/07/24 03:54:44;;;;;;;0.60;0.60;;;;;;;23.31;87.71;99556.56;5112003;28;20674;-65
2023/07/24 03:57:10;;;;;;;0.60;0.60;;;;;;;23.30;88.45;99557.50;5112263;28;20212;-65
2023/07/24 03:59:37;;;;;;;0.83;0.83;;;;;;;23.26;90.53;99556.13;5112655;28;20271;-64
2023/07/24 04:02:06;;;;;;;2.00;1.60;;;;;;;23.11;91.63;99537.22;5111954;28;20260;-65
2023/07/24 04:04:33;;;;;;;0.80;0.80;;;;;;;23.29;93.01;99563.72;5111035;28;20195;-65
2023/07/24 04:06:59;;;;;;;0.80;0.80;;;;;;;23.29;94.97;99561.09;5111218;28;20260;-64
2023/07/24 04:09:26;;;;;;;0.70;0.70;;;;;;;23.34;95.26;99561.56;5112405;28;20210;-64
2023/07/24 04:11:53;;;;;;;1.20;1.10;;;;;;;23.33;96.70;99562.50;5112490;28;20630;-64
2023/07/24 04:24:26;;;;;;;0.70;0.70;;;;;;;23.43;100.00;99566.06;5111560;28;20241;-64
2023/07/24 04:26:53;;;;;;;0.97;0.97;;;;;;;23.44;100.00;99563.34;5111037;28;20199;-64
2023/07/24 04:29:23;;;;;;;0.80;0.80;;;;;;;23.54;100.00;99568.69;5110847;28;20226;-64
2023/07/24 04:31:50;;;;;;;0.50;0.50;;;;;;;23.58;100.00;99577.94;5112845;28;20666;-64
2023/07/24 04:34:17;;;;;;;1.47;1.37;;;;;;;23.62;100.00;99578.53;5112805;28;20666;-65
2023/07/24 04:36:43;;;;;;;0.90;0.80;;;;;;;23.67;100.00;99582.44;5112325;28;20198;-64
2023/07/24 04:39:10;;;;;;;0.63;0.63;;;;;;;23.74;100.00;99581.00;5112414;28;20636;-64
2023/07/24 04:41:38;;;;;;;0.70;0.70;;;;;;;23.71;100.00;99586.47;5112239;28;20227;-64
2023/07/24 04:44:05;;;;;;;0.77;0.77;;;;;;;23.81;100.00;99589.19;5112417;28;20206;-64
2023/07/24 04:46:32;;;;;;;1.27;1.07;;;;;;;23.93;100.00;99585.53;5112102;28;20203;-64
2023/07/24 04:48:59;;;;;;;2.13;0.93;;;;;;;23.95;100.00;99575.75;5111099;28;20191;-64
2023/07/24 04:51:25;;;;;;;1.03;1.03;;;;;;;24.13;100.00;99587.38;5112032;28;20198;-65
2023/07/24 04:53:52;;;;;;;1.20;1.17;;;;;;;24.29;100.00;99586.94;5109965;28;20206;-64
2023/07/24 04:56:19;;;;;;;2.97;1.13;;;;;;;24.38;100.00;99576.50;5110772;28;20210;-64
2023/07/24 04:58:47;;;;;;;1.03;1.03;;;;;;;24.48;100.00;99572.16;5111361;28;20214;-65
2023/07/24 05:01:14;;;;;;;1.83;1.47;;;;;;;24.76;100.00;99580.28;5112451;28;20234;-64
2023/07/24 05:03:40;;;;;;;1.40;1.30;;;;;;;24.98;100.00;99588.81;5110855;28;20214;-64
2023/07/24 05:06:07;;;;;;;1.93;1.13;;;;;;;25.20;100.00;99581.72;5111176;28;20198;-64
2023/07/24 05:08:34;;;;;;;5.20;1.40;;;;;;;25.29;100.00;99583.53;5109901;28;20195;-65
2023/07/24 05:11:01;;;;;;;1.90;1.23;;;;;;;25.24;100.00;99559.47;5108590;28;20681;-65
2023/07/24 05:13:28;;;;;;;1.13;1.13;;;;;;;25.44;100.00;99582.16;5110759;28;20297;-65
2023/07/24 05:15:56;;;;;;;2.30;1.10;;;;;;;25.53;99.81;99578.75;5111047;28;20270;-65
2023/07/24 05:18:22;;;;;;;1.90;1.17;;;;;;;25.68;98.39;99587.91;5101915;28;20205;-65
2023/07/24 05:20:51;;;;;;;1.20;1.20;;;;;;;25.86;97.92;99586.25;5108407;28;20211;-64
2023/07/24 05:23:18;;;;;;;1.93;1.47;;;;;;;26.00;97.02;99596.34;5108488;28;20199;-64
2023/07/24 05:25:44;;;;;;;1.27;1.00;;;;;;;26.11;96.90;99596.19;5110369;28;20206;-64
2023/07/24 05:28:12;;;;;;;1.77;1.67;;;;;;;26.23;95.83;99598.72;5109255;28;20230;-65
2023/07/24 05:30:39;;;;;;;1.20;1.10;;;;;;;26.43;94.49;99592.44;5107920;28;20214;-63
2023/07/24 05:33:07;;;;;;;3.40;1.37;;;;;;;26.57;93.98;99599.88;5106927;28;20687;-63
2023/07/24 05:35:33;;;;;;;2.10;1.87;;;;;;;26.70;92.42;99600.38;5109220;28;20663;-63
2023/07/24 05:38:00;;;;;;;1.43;1.40;;;;;;;26.81;92.30;99592.34;5109063;28;20211;-63
2023/07/24 05:40:28;;;;;;;1.83;1.67;;;;;;;26.86;90.54;99602.44;5107538;28;20215;-63
2023/07/24 05:42:54;;;;;;;1.87;1.67;;;;;;;26.80;90.99;99601.19;5107325;28;20198;-65
2023/07/24 05:45:21;;;;;;;3.77;1.47;;;;;;;26.94;90.45;99592.84;5109273;28;20278;-65
2023/07/24 05:47:48;;;;;;;2.03;1.83;;;;;;;27.05;89.09;99590.03;5110393;28;20202;-65
2023/07/24 05:50:16;;;;;;;3.97;1.23;;;;;;;27.13;89.92;99594.56;5108954;28;20643;-66
2023/07/24 05:52:43;;;;;;;1.57;1.47;;;;;;;27.36;87.97;99587.09;5110047;28;20243;-65
2023/07/24 05:55:10;;;;;;;1.10;1.00;;;;;;;27.49;87.74;99572.63;5108493;28;20666;-65
2023/07/24 05:57:37;;;;;;;2.47;1.37;;;;;;;27.85;85.85;99581.34;5110329;28;20575;-65
2023/07/24 06:00:04;;;;;;;1.90;1.70;;;;;;;28.17;85.39;99580.00;5108848;28;20230;-65
2023/07/24 06:02:31;;;;;;;2.93;0.80;;;;;;;28.34;80.96;99573.81;5110681;28;20190;-65
2023/07/24 06:04:58;;;;;;;3.17;1.70;;;;;;;28.56;81.64;99574.13;5106180;28;20206;-65
2023/07/24 06:07:27;;;;;;;1.27;1.17;;;;;;;28.86;79.88;99583.41;5110416;28;20207;-65
2023/07/24 06:09:53;;;;;;;2.03;1.57;;;;;;;29.19;77.77;99587.81;5106805;28;20207;-65
2023/07/24 06:12:20;;;;;;;2.83;1.50;;;;;;;29.44;76.71;99591.38;5110384;28;20206;-65
2023/07/24 06:14:47;;;;;;;1.43;1.33;;;;;;;29.70;75.61;99581.53;5109358;28;20206;-65
2023/07/24 06:17:13;;;;;;;8.43;2.20;;;;;;;29.92;74.81;99589.84;5108098;28;20199;-65
2023/07/24 06:19:40;;;;;;;2.00;1.60;;;;;;;30.08;71.47;99582.72;5109020;28;20701;-64
2023/07/24 06:22:07;;;;;;;3.03;2.13;;;;;;;30.16;70.27;99580.06;5109602;28;20202;-65
2023/07/24 06:24:35;;;;;;;1.98;1.77;;;;;;;30.28;70.40;99569.97;5106782;28;20199;-64
2023/07/24 06:27:02;;;;;;;1.58;1.48;;;;;;;30.36;69.24;99567.31;5104990;28;20658;-65
2023/07/24 06:29:29;;;;;;;1.92;1.73;;;;;;;30.51;68.97;99563.00;5109113;28;20582;-65
2023/07/24 06:31:56;;;;;;;2.95;1.80;;;;;;;30.75;68.09;99564.78;5110624;28;20693;-63
2023/07/24 06:34:22;;;;;;;3.83;2.15;;;;;;;30.89;64.82;99564.03;5112409;28;20210;-63
2023/07/24 06:36:49;;;;;;;1.55;1.45;;;;;;;30.89;64.92;99561.38;5114629;28;20206;-64
2023/07/24 06:39:16;;;;;;;1.70;1.58;;;;;;;30.89;63.46;99569.31;5114014;28;20214;-65
2023/07/24 06:41:45;;;;;;;1.58;1.48;;;;;;;31.08;65.29;99563.66;5114007;28;20555;-64
2023/07/24 06:44:11;;;;;;;1.42;1.33;;;;;;;31.34;62.58;99567.84;5113808;28;20203;-65
2023/07/24 06:46:38;;;;;;;5.18;1.60;;;;;;;31.61;62.28;99559.38;5110641;28;20199;-65
2023/07/24 06:49:05;;;;;;;1.98;1.77;;;;;;;31.73;61.13;99544.72;5113734;28;20775;-65
2023/07/24 06:51:32;;;;;;;5.15;1.30;;;;;;;32.04;59.94;99556.09;5113202;28;20634;-65
2023/07/24 06:53:58;;;;;;;2.17;1.73;;;;;;;32.28;60.44;99556.88;5112945;28;20540;-64
2023/07/24 06:56:25;;;;;;;3.42;1.70;;;;;;;32.31;57.53;99556.50;5113717;27;20555;-65
2023/07/24 06:58:54;;;;;;;6.40;1.67;;;;;;;32.26;57.96;99549.09;5113751;28;20650;-65
2023/07/24 07:01:20;;;;;;;1.40;1.30;;;;;;;32.31;57.70;99551.19;5113368;28;20670;-65
2023/07/24 07:03:47;;;;;;;3.20;1.70;;;;;;;32.48;57.41;99553.47;5113242;28;20206;-65
2023/07/24 07:06:14;;;;;;;1.65;1.42;;;;;;;32.49;54.38;99533.91;5113659;28;20205;-65
2023/07/24 07:08:41;;;;;;;1.77;1.50;;;;;;;32.66;54.58;99550.50;5112805;28;20203;-65
2023/07/24 07:11:08;;;;;;;1.95;1.75;;;;;;;32.62;55.38;99523.50;5112990;28;20199;-65
2023/07/24 07:13:36;;;;;;;2.10;1.55;;;;;;;32.83;57.11;99543.97;5112753;28;20199;-65
2023/07/24 07:16:04;;;;;;;2.17;1.50;;;;;;;32.87;54.86;99552.41;5110868;28;20730;-66
2023/07/24 07:18:31;;;;;;;1.65;1.55;;;;;;;32.51;54.14;99493.91;5112842;28;20205;-65
2023/07/24 07:20:58;;;;;;;1.98;1.58;;;;;;;32.82;54.67;99539.69;5110454;28;20571;-65
2023/07/24 07:23:25;;;;;;;3.42;1.98;;;;;;;32.78;55.97;99538.41;5110904;28;20640;-65
2023/07/24 07:25:52;;;;;;;3.55;1.60;;;;;;;32.90;54.48;99552.03;5111674;28;20206;-65
2023/07/24 07:28:19;;;;;;;1.30;1.20;;;;;;;33.07;55.48;99548.97;5111689;28;20229;-65
2023/07/24 07:30:46;;;;;;;4.13;2.25;;;;;;;33.22;53.08;99530.38;5111315;28;20631;-66
2023/07/24 07:33:14;;;;;;;7.22;1.17;;;;;;;33.46;54.24;99521.22;5106996;28;20591;-63
2023/07/24 07:35:42;;;;;;;1.63;1.52;;;;;;;33.64;52.26;99530.41;5110309;28;20195;-65
2023/07/24 07:38:09;;;;;;;3.28;1.65;;;;;;;33.68;53.27;99526.38;5112988;28;20199;-65
2023/07/24 07:40:38;;;;;;;1.92;1.48;;;;;;;33.60;51.60;99525.66;5110622;28;20215;-65
2023/07/24 07:43:04;;;;;;;2.42;2.08;;;;;;;33.66;50.51;99516.94;5111985;27;20203;-65
2023/07/24 07:45:31;;;;;;;2.13;1.40;;;;;;;33.50;48.89;99507.38;5111988;28;20202;-64
2023/07/24 07:47:58;;;;;;;4.57;1.23;;;;;;;33.43;49.79;99521.59;5110045;28;20199;-64
2023/07/24 07:50:26;;;;;;;1.63;1.52;;;;;;;33.50;52.60;99511.84;5112708;28;20597;-64
2023/07/24 07:52:53;;;;;;;3.80;1.13;;;;;;;33.31;52.44;99512.47;5111011;28;20207;-65
2023/07/24 07:55:20;;;;;;;3.20;1.42;;;;;;;33.05;52.76;99489.91;5112250;28;20207;-64
2023/07/24 07:57:47;;;;;;;3.47;1.45;;;;;;;32.96;51.43;99503.50;5112084;28;20206;-65
2023/07/24 08:00:14;;;;;;;2.30;2.20;;;;;;;32.87;51.48;99500.09;5111519;28;20222;-64
2023/07/24 08:02:41;;;;;;;4.57;1.70;;;;;;;33.06;51.48;99515.44;5112330;28;20243;-64
2023/07/24 08:05:09;;;;;;;5.28;1.70;;;;;;;33.32;49.55;99514.94;5112783;28;20248;-65
2023/07/24 08:07:37;;;;;;;2.40;1.42;;;;;;;33.37;49.57;99515.22;5108588;28;20255;-64
2023/07/24 08:10:06;;;;;;;2.65;1.75;;;;;;;33.49;49.28;99510.19;5112530;28;20202;-64
2023/07/24 08:12:32;;;;;;;2.00;1.42;;;;;;;32.84;48.44;99495.19;5113114;28;20268;-64
2023/07/24 08:14:59;;;;;;;3.85;1.40;;;;;;;32.99;50.35;99509.22;5112922;28;20650;-64
2023/07/24 08:17:26;;;;;;;7.30;1.80;;;;;;;33.32;49.76;99508.78;5112396;28;20664;-64
2023/07/24 08:19:53;;;;;;;3.15;1.55;;;;;;;33.67;47.65;99513.25;5112388;28;20218;-64
2023/07/24 08:22:22;;;;;;;1.52;1.25;;;;;;;33.78;47.36;99518.06;5112383;28;20202;-65
2023/07/24 08:24:51;;;;;;;4.03;1.83;;;;;;;33.54;48.03;99508.59;5111785;28;20670;-65
2023/07/24 08:27:18;;;;;;;2.95;1.10;;;;;;;33.50;48.04;99501.22;5112032;28;20285;-64
2023/07/24 08:29:44;;;;;;;1.80;1.35;;;;;;;33.60;48.81;99485.78;5110751;28;20202;-65
2023/07/24 08:32:12;;;;;;;3.25;1.83;;;;;;;33.89;47.94;99501.59;5110510;28;20206;-65
2023/07/24 08:34:39;;;;;;;1.55;1.45;;;;;;;34.08;46.44;99503.56;5111845;28;20196;-64
2023/07/24 08:37:06;;;;;;;1.73;1.52;;;;;;;34.17;45.66;99505.09;5108875;28;20214;-64
2023/07/24 08:39:33;;;;;;;4.47;1.42;;;;;;;34.10;45.85;99482.91;5108742;28;20296;-64
2023/07/24 08:42:08;;;;;;;2.53;1.63;;;;;;;34.18;46.68;99496.09;5109574;28;20727;-63
2023/07/24 08:44:35;;;;;;;2.05;1.50;;;;;;;33.99;47.68;99477.31;5108798;28;20665;-64
2023/07/24 08:47:03;;;;;;;2.05;1.65;;;;;;;33.90;47.92;99487.25;5102188;28;20199;-64
2023/07/24 08:49:31;;;;;;;1.48;1.35;;;;;;;34.15;51.64;99487.69;5109799;28;20207;-63
2023/07/24 08:51:59;;;;;;;4.18;1.65;;;;;;;34.32;47.64;99485.50;5109486;28;20255;-63
2023/07/24 08:54:27;;;;;;;2.17;1.60;;;;;;;34.35;47.47;99453.19;5107558;28;20670;-64
2023/07/24 08:56:55;;;;;;;2.40;1.35;;;;;;;34.68;47.14;99483.47;5109999;28;20203;-63
2023/07/24 08:59:23;;;;;;;8.70;1.40;;;;;;;34.83;49.46;99473.50;5111031;28;20210;-63
2023/07/24 09:01:50;;;;;;;1.65;1.55;;;;;;;34.96;48.53;99473.50;5107765;28;20206;-63
2023/07/24 09:04:17;;;;;;;2.05;1.30;;;;;;;34.82;47.00;99473.69;5108909;28;20234;-63
2023/07/24 09:06:45;;;;;;;3.08;1.67;;;;;;;34.86;46.82;99470.44;5107377;28;20199;-63
2023/07/24 09:09:16;;;;;;;1.20;1.15;;;;;;;35.01;46.56;99463.09;5110566;28;20202;-63
2023/07/24 09:11:51;;;;;;;1.65;1.20;;;;;;;35.14;48.77;99471.13;5108528;28;20285;-63
2023/07/24 09:14:23;;;;;;;1.85;1.40;;;;;;;35.41;45.94;99466.66;5110597;28;20209;-63
2023/07/24 09:16:52;;;;;;;5.15;1.45;;;;;;;35.32;44.72;99456.41;5110443;28;20202;-63
2023/07/24 09:19:20;;;;;;;3.55;1.55;;;;;;;35.52;47.48;99459.88;5107916;28;20995;-63
2023/07/24 09:21:47;;;;;;;1.33;1.23;;;;;;;35.13;45.61;99448.16;5109757;28;20226;-64
2023/07/24 09:24:15;;;;;;;2.28;1.40;;;;;;;34.95;45.98;99455.91;5109110;28;20209;-63
2023/07/24 09:26:49;;;;;;;1.73;1.35;;;;;;;34.77;48.27;99452.97;5107635;28;20679;-63
2023/07/24 09:29:17;;;;;;;2.78;1.45;;;;;;;34.98;46.87;99449.34;5107953;28;20697;-63
2023/07/24 09:31:46;;;;;;;1.67;1.17;;;;;;;35.01;45.24;99416.97;5110306;28;20670;-64
2023/07/24 09:34:17;;;;;;;1.70;1.55;;;;;;;34.61;45.73;99430.16;5110403;28;20578;-64
2023/07/24 09:36:45;;;;;;;3.78;1.75;;;;;;;34.65;48.18;99444.75;5108844;28;20202;-64
2023/07/24 09:39:12;;;;;;;2.20;2.00;;;;;;;34.72;47.32;99434.09;5108954;28;20297;-64
2023/07/24 09:41:40;;;;;;;1.95;1.73;;;;;;;34.66;47.16;99418.94;5106669;28;20257;-66
2023/07/24 09:44:06;;;;;;;3.25;1.67;;;;;;;34.97;46.24;99427.19;5110435;28;20230;-66
2023/07/24 10:10:08;;;;;;;1.35;1.35;;;;;;;35.66;45.47;99394.88;5111441;28;20201;-66
2023/07/24 10:16:28;;;;;;;2.05;1.40;;;;;;;35.35;45.07;99381.34;5108371;28;20248;-66
2023/07/24 10:18:55;;;;;;;1.83;1.13;;;;;;;35.24;43.78;99364.94;5113294;28;20199;-66
2023/07/24 10:21:28;;;;;;;2.00;1.33;;;;;;;35.09;44.79;99377.59;5112328;28;20304;-66
2023/07/24 10:23:55;;;;;;;1.05;1.00;;;;;;;35.07;43.93;99358.34;5113368;28;20194;-66
2023/07/24 10:26:27;;;;;;;1.30;1.20;;;;;;;35.44;43.51;99361.44;5113997;28;20279;-66
2023/07/24 10:28:55;;;;;;;1.48;1.35;;;;;;;35.72;42.72;99365.53;5113146;28;20265;-66
2023/07/24 10:31:23;;;;;;;2.05;1.55;;;;;;;35.78;41.45;99369.19;5113556;28;20199;-66
2023/07/24 10:33:51;;;;;;;0.93;0.93;;;;;;;35.85;42.55;99356.66;5112099;28;20220;-66
2023/07/24 10:36:19;;;;;;;1.77;1.30;;;;;;;35.92;43.55;99336.13;5112156;28;20201;-66
2023/07/24 10:38:47;;;;;;;4.20;1.60;;;;;;;36.04;41.19;99355.78;5112466;28;20195;-66
2023/07/24 10:41:14;;;;;;;1.33;1.27;;;;;;;35.60;41.63;99337.88;5112220;28;20226;-64
2023/07/24 10:43:44;;;;;;;1.45;1.35;;;;;;;35.41;40.48;99337.88;5113170;28;20276;-65
2023/07/24 10:46:11;;;;;;;2.33;1.23;;;;;;;35.35;42.75;99339.50;5112531;28;20214;-65
2023/07/24 10:48:42;;;;;;;1.55;1.45;;;;;;;35.02;42.06;99312.84;5112814;28;20640;-65
2023/07/24 10:51:10;;;;;;;1.30;1.20;;;;;;;35.19;42.37;99319.41;5108358;28;20199;-65
2023/07/24 10:53:38;;;;;;;2.10;1.55;;;;;;;35.61;41.86;99320.81;5113159;28;20203;-65
2023/07/24 10:56:05;;;;;;;2.53;1.45;;;;;;;35.87;42.47;99317.25;5113344;28;20693;-66
2023/07/24 10:58:33;;;;;;;1.88;1.48;;;;;;;35.52;41.43;99299.88;5112431;28;20203;-65
2023/07/24 11:01:01;;;;;;;1.50;1.40;;;;;;;35.48;41.32;99280.00;5111886;28;20602;-65
2023/07/24 11:03:28;;;;;;;2.08;1.83;;;;;;;35.85;42.09;99303.31;5109847;28;20203;-64
2023/07/24 11:05:55;;;;;;;2.47;1.40;;;;;;;35.78;40.08;99297.16;5113082;28;20259;-64
2023/07/24 11:08:22;;;;;;;1.95;1.35;;;;;;;35.66;40.19;99282.84;5111971;28;20201;-64
2023/07/24 11:10:50;;;;;;;5.07;1.77;;;;;;;35.87;38.64;99290.56;5113246;28;20669;-64
2023/07/24 11:13:17;;;;;;;1.50;1.42;;;;;;;35.92;38.13;99293.44;5112936;28;20210;-64
2023/07/24 11:15:45;;;;;;;1.38;1.27;;;;;;;36.03;41.01;99287.41;5110536;28;20616;-64
2023/07/24 11:18:13;;;;;;;3.20;1.25;;;;;;;35.84;41.04;99280.31;5112860;28;20202;-64
2023/07/24 11:20:45;;;;;;;4.00;1.77;;;;;;;36.21;41.90;99282.25;5112105;28;20560;-65
2023/07/24 11:23:12;;;;;;;2.35;1.70;;;;;;;36.23;39.79;99274.81;5109538;28;20255;-63
2023/07/24 11:25:39;;;;;;;3.42;1.60;;;;;;;36.38;42.38;99268.38;5110478;28;20206;-64
2023/07/24 11:28:07;;;;;;;1.73;1.10;;;;;;;36.32;37.97;99273.53;5111423;28;20222;-64
2023/07/24 11:30:34;;;;;;;2.67;1.40;;;;;;;36.13;38.71;99263.78;5112606;28;20199;-66
2023/07/24 11:33:02;;;;;;;4.03;1.55;;;;;;;35.98;39.72;99270.41;5112858;28;20202;-66
2023/07/24 11:35:31;;;;;;;1.40;1.30;;;;;;;35.92;38.12;99261.41;5110217;28;20202;-63
2023/07/24 11:37:58;;;;;;;2.35;1.95;;;;;;;36.06;38.89;99257.66;5111744;28;20206;-65
2023/07/24 11:40:32;;;;;;;2.17;1.75;;;;;;;36.32;37.58;99257.50;5112417;28;20218;-66
2023/07/24 11:42:59;;;;;;;2.58;1.67;;;;;;;36.28;36.02;99250.16;5112896;28;20198;-63
2023/07/24 11:45:26;;;;;;;1.08;0.95;;;;;;;36.39;33.40;99262.81;5111590;28;20217;-64
2023/07/24 11:47:53;;;;;;;1.70;1.60;;;;;;;36.61;36.11;99257.97;5111153;28;20601;-65
2023/07/24 11:50:20;;;;;;;1.80;1.23;;;;;;;36.72;33.97;99257.25;5109145;28;20242;-65
2023/07/24 11:52:50;;;;;;;1.20;1.10;;;;;;;36.66;33.90;99252.78;5110954;28;20214;-65
2023/07/24 11:55:18;;;;;;;3.38;1.23;;;;;;;36.68;34.79;99245.38;5111963;28;20951;-65
2023/07/24 11:57:56;;;;;;;3.05;1.58;;;;;;;36.90;34.78;99251.16;5110713;28;20252;-65
2023/07/24 12:00:23;;;;;;;1.13;1.00;;;;;;;36.93;30.90;99254.22;5110604;28;20209;-64
2023/07/24 12:02:51;;;;;;;1.88;1.45;;;;;;;36.75;31.70;99252.31;5108696;28;20202;-64
2023/07/24 12:05:18;;;;;;;3.08;1.40;;;;;;;36.81;31.21;99250.59;5112280;28;20685;-63
2023/07/24 12:07:46;;;;;;;2.53;1.20;;;;;;;36.69;32.55;99247.84;5112124;28;20251;-66
2023/07/24 12:10:26;;;;;;;2.28;1.30;;;;;;;36.58;31.55;99245.03;5111880;28;20213;-66